Time;durP1;ratioP1;P1;durP2;ratioP2;P2;SDS_P1;SDS_P2;PMS_P1;PMS_P2;Temp;Humidity;BMP_temperature;BMP_pressure;BME280_temperature;BME280_humidity;BME280_pressure;Samples;Min_cycle;Max_cycle;Signal;HPM_P1;HPM_P2
2020/12/24 00:00:29;;;;;;;9.00;8.20;;;;;;;;;;4994847;28;20190;-85
2020/12/24 00:03:01;;;;;;;12.60;8.50;;;;;;;;;;4996304;28;20198;-84
2020/12/24 00:05:32;;;;;;;8.30;7.70;;;;;;;;;;4996406;28;20548;-85
2020/12/24 00:08:01;;;;;;;7.80;7.00;;;;;;;;;;4996786;28;20297;-84
2020/12/24 00:10:27;;;;;;;7.83;7.30;;;;;;;;;;4994878;28;20248;-84
2020/12/24 00:12:58;;;;;;;8.10;7.50;;;;;;;;;;4996068;28;20185;-84
2020/12/24 00:15:27;;;;;;;8.20;7.50;;;;;;;;;;4994772;28;20205;-84
2020/12/24 00:17:59;;;;;;;7.50;6.87;;;;;;;;;;4994724;28;20170;-84
2020/12/24 00:20:30;;;;;;;9.23;8.43;;;;;;;;;;4995324;28;20190;-83
2020/12/24 00:23:05;;;;;;;10.23;7.30;;;;;;;;;;4996033;28;20174;-84
2020/12/24 00:25:35;;;;;;;8.20;7.57;;;;;;;;;;4996265;28;20408;-83
2020/12/24 00:28:09;;;;;;;8.23;7.67;;;;;;;;;;4995900;28;20655;-83
2020/12/24 00:30:40;;;;;;;8.47;7.77;;;;;;;;;;4996201;28;20310;-82
2020/12/24 00:33:14;;;;;;;7.53;7.03;;;;;;;;;;4995681;28;20184;-82
2020/12/24 00:35:41;;;;;;;7.93;7.40;;;;;;;;;;4995717;28;20205;-82
2020/12/24 00:38:11;;;;;;;7.33;6.83;;;;;;;;;;4995946;28;20182;-83
2020/12/24 00:40:42;;;;;;;7.73;7.23;;;;;;;;;;4995864;28;20178;-83
2020/12/24 00:43:15;;;;;;;8.63;7.83;;;;;;;;;;4994301;28;20182;-82
2020/12/24 00:45:50;;;;;;;8.23;7.63;;;;;;;;;;4994059;28;20201;-83
2020/12/24 00:48:21;;;;;;;8.27;7.47;;;;;;;;;;4995468;28;20162;-83
2020/12/24 00:50:53;;;;;;;8.60;7.97;;;;;;;;;;4995786;28;20177;-81
2020/12/24 00:53:29;;;;;;;8.80;8.20;;;;;;;;;;4993944;28;20547;-82
2020/12/24 00:55:56;;;;;;;8.70;8.07;;;;;;;;;;4994003;28;20185;-81
2020/12/24 00:58:27;;;;;;;9.03;8.43;;;;;;;;;;4995160;28;20265;-82
2020/12/24 01:00:54;;;;;;;8.67;8.13;;;;;;;;;;4994993;28;20185;-82
2020/12/24 01:03:29;;;;;;;9.73;8.70;;;;;;;;;;4995070;28;20182;-82
2020/12/24 01:06:00;;;;;;;9.40;8.70;;;;;;;;;;4993686;28;20227;-82
2020/12/24 01:08:31;;;;;;;9.07;8.27;;;;;;;;;;4994928;28;20223;-82
2020/12/24 01:11:05;;;;;;;8.57;8.07;;;;;;;;;;4994872;28;20166;-83
2020/12/24 01:13:32;;;;;;;8.00;7.60;;;;;;;;;;4994906;28;20645;-83
2020/12/24 01:16:04;;;;;;;8.83;8.23;;;;;;;;;;4993607;28;20255;-83
2020/12/24 01:18:39;;;;;;;9.10;8.30;;;;;;;;;;4994992;28;20198;-83
2020/12/24 01:21:11;;;;;;;8.67;7.83;;;;;;;;;;4995117;28;20181;-81
2020/12/24 01:23:44;;;;;;;8.87;8.23;;;;;;;;;;4994580;28;20185;-82
2020/12/24 01:26:19;;;;;;;9.10;8.40;;;;;;;;;;4993273;28;20738;-82
2020/12/24 01:28:55;;;;;;;9.10;8.40;;;;;;;;;;4993039;28;20214;-82
2020/12/24 01:31:26;;;;;;;8.57;8.03;;;;;;;;;;4993985;28;20652;-82
2020/12/24 01:33:58;;;;;;;8.37;7.77;;;;;;;;;;4994352;28;20261;-82
2020/12/24 01:36:29;;;;;;;9.00;8.30;;;;;;;;;;4994512;28;20178;-82
2020/12/24 01:39:00;;;;;;;9.10;8.40;;;;;;;;;;4994268;28;20233;-82
2020/12/24 01:41:33;;;;;;;9.00;8.40;;;;;;;;;;4994282;28;20262;-82
2020/12/24 01:44:05;;;;;;;9.00;8.30;;;;;;;;;;4994370;28;20220;-82
2020/12/24 01:46:31;;;;;;;9.43;8.77;;;;;;;;;;4994192;28;20642;-82
2020/12/24 01:49:02;;;;;;;8.70;8.07;;;;;;;;;;4994073;28;20202;-82
2020/12/24 01:51:31;;;;;;;9.73;8.97;;;;;;;;;;4992953;28;20182;-82
2020/12/24 01:54:03;;;;;;;9.77;8.63;;;;;;;;;;4994087;28;20184;-83
2020/12/24 01:56:35;;;;;;;9.63;8.60;;;;;;;;;;4994286;28;20184;-82
2020/12/24 01:59:08;;;;;;;9.27;8.57;;;;;;;;;;4993980;28;20198;-82
2020/12/24 02:01:40;;;;;;;8.70;8.17;;;;;;;;;;4994320;28;20184;-82
2020/12/24 02:04:13;;;;;;;9.30;8.70;;;;;;;;;;4993890;28;20182;-82
2020/12/24 02:06:46;;;;;;;8.87;8.37;;;;;;;;;;4994070;28;20223;-82
2020/12/24 02:09:15;;;;;;;9.53;8.70;;;;;;;;;;4992562;28;20696;-83
2020/12/24 02:11:49;;;;;;;9.87;8.93;;;;;;;;;;4994069;28;20174;-82
2020/12/24 02:14:25;;;;;;;9.97;9.20;;;;;;;;;;4993913;28;20222;-82
2020/12/24 02:16:56;;;;;;;9.20;8.70;;;;;;;;;;4992611;28;20268;-82
2020/12/24 02:19:30;;;;;;;9.60;8.90;;;;;;;;;;4993978;28;20210;-82
2020/12/24 02:22:06;;;;;;;9.33;8.73;;;;;;;;;;4993931;28;20638;-82
2020/12/24 02:24:36;;;;;;;8.93;8.33;;;;;;;;;;4992858;28;20623;-83
2020/12/24 02:27:08;;;;;;;9.23;8.57;;;;;;;;;;4993794;28;20228;-82
2020/12/24 02:29:39;;;;;;;9.63;8.70;;;;;;;;;;4993545;28;20296;-82
2020/12/24 02:32:10;;;;;;;9.40;8.67;;;;;;;;;;4992357;28;20646;-82
2020/12/24 02:34:42;;;;;;;9.30;8.70;;;;;;;;;;4992338;28;20595;-82
2020/12/24 02:37:12;;;;;;;9.40;8.70;;;;;;;;;;4993625;28;20212;-83
2020/12/24 02:39:47;;;;;;;9.70;9.10;;;;;;;;;;4992601;28;20254;-83
2020/12/24 02:42:19;;;;;;;9.57;8.97;;;;;;;;;;4994229;28;20699;-82
2020/12/24 02:44:51;;;;;;;10.53;9.47;;;;;;;;;;4997475;28;20212;-83
2020/12/24 02:47:19;;;;;;;9.40;8.80;;;;;;;;;;4997804;28;20170;-82
2020/12/24 02:49:51;;;;;;;9.63;8.73;;;;;;;;;;4997412;28;20550;-82
2020/12/24 02:52:23;;;;;;;10.10;9.20;;;;;;;;;;4997660;28;20186;-82
2020/12/24 02:54:56;;;;;;;9.63;9.03;;;;;;;;;;4997703;28;20526;-83
2020/12/24 02:57:25;;;;;;;9.90;9.20;;;;;;;;;;4997669;28;20205;-82
2020/12/24 02:59:58;;;;;;;9.97;9.27;;;;;;;;;;4997713;28;20225;-82
2020/12/24 03:02:29;;;;;;;9.77;9.07;;;;;;;;;;4997691;28;20253;-83
2020/12/24 03:05:05;;;;;;;9.70;9.00;;;;;;;;;;4995846;28;20206;-82
2020/12/24 03:07:37;;;;;;;9.60;8.77;;;;;;;;;;4996096;28;20185;-82
2020/12/24 03:10:09;;;;;;;8.93;8.30;;;;;;;;;;4997156;28;20269;-82
2020/12/24 03:12:41;;;;;;;9.83;9.13;;;;;;;;;;4996300;28;20562;-81
2020/12/24 03:15:14;;;;;;;10.30;9.60;;;;;;;;;;4997127;28;20177;-82
2020/12/24 03:17:47;;;;;;;9.50;8.70;;;;;;;;;;4997377;28;20174;-82
2020/12/24 03:20:20;;;;;;;9.50;8.90;;;;;;;;;;4995680;28;20696;-82
2020/12/24 03:22:54;;;;;;;9.33;8.70;;;;;;;;;;4997278;28;20181;-82
2020/12/24 03:25:24;;;;;;;10.10;9.10;;;;;;;;;;4997113;28;20201;-82
2020/12/24 03:27:58;;;;;;;9.53;8.90;;;;;;;;;;4996744;28;20220;-82
2020/12/24 03:30:29;;;;;;;9.23;8.67;;;;;;;;;;4996580;28;20219;-82
2020/12/24 03:33:01;;;;;;;10.50;9.40;;;;;;;;;;4995482;28;20328;-82
2020/12/24 03:35:36;;;;;;;9.60;8.97;;;;;;;;;;4995277;28;20181;-82
2020/12/24 03:38:08;;;;;;;9.80;9.10;;;;;;;;;;4996716;28;20189;-82
2020/12/24 03:40:37;;;;;;;9.93;9.33;;;;;;;;;;4996801;28;20327;-82
2020/12/24 03:43:10;;;;;;;10.03;9.10;;;;;;;;;;4995215;28;20650;-82
2020/12/24 03:45:45;;;;;;;9.40;8.90;;;;;;;;;;4996489;28;20666;-82
2020/12/24 03:48:18;;;;;;;10.00;9.40;;;;;;;;;;4995321;28;20177;-81
2020/12/24 03:50:50;;;;;;;10.03;9.37;;;;;;;;;;4996666;28;20251;-82
2020/12/24 03:53:23;;;;;;;9.70;9.10;;;;;;;;;;4994773;28;20671;-82
2020/12/24 03:55:55;;;;;;;10.57;9.97;;;;;;;;;;4996041;28;20544;-82
2020/12/24 03:58:27;;;;;;;10.17;9.57;;;;;;;;;;4996338;28;20197;-82
2020/12/24 04:00:58;;;;;;;9.90;9.40;;;;;;;;;;4996654;28;20522;-82
2020/12/24 04:03:30;;;;;;;10.20;9.60;;;;;;;;;;4996191;28;20189;-82
2020/12/24 04:06:07;;;;;;;10.40;9.83;;;;;;;;;;4996098;28;20299;-82
2020/12/24 04:08:39;;;;;;;9.80;9.30;;;;;;;;;;4996440;28;20215;-83
2020/12/24 04:11:11;;;;;;;10.80;10.10;;;;;;;;;;4996099;28;20174;-82
2020/12/24 04:13:45;;;;;;;9.97;9.47;;;;;;;;;;4996014;28;20171;-83
2020/12/24 04:16:17;;;;;;;10.90;10.20;;;;;;;;;;4994867;28;20184;-83
2020/12/24 04:18:50;;;;;;;10.57;9.97;;;;;;;;;;4994725;28;20197;-82
2020/12/24 04:21:26;;;;;;;11.73;10.73;;;;;;;;;;4996164;28;20185;-83
2020/12/24 04:23:55;;;;;;;11.13;10.53;;;;;;;;;;4995523;28;20277;-82
2020/12/24 04:26:26;;;;;;;11.50;10.80;;;;;;;;;;4994587;28;20197;-82
2020/12/24 04:31:26;;;;;;;11.80;11.00;;;;;;;;;;5047044;23;20268;-87
2020/12/24 04:33:58;;;;;;;10.80;10.20;;;;;;;;;;4995523;28;20654;-87
2020/12/24 04:36:31;;;;;;;10.70;10.00;;;;;;;;;;4995489;28;20529;-87
2020/12/24 04:39:02;;;;;;;10.60;10.00;;;;;;;;;;4995742;28;20165;-87
2020/12/24 04:41:35;;;;;;;10.97;10.17;;;;;;;;;;4995527;28;20236;-87
2020/12/24 04:44:07;;;;;;;10.57;9.90;;;;;;;;;;4994082;28;20268;-87
2020/12/24 04:46:39;;;;;;;10.20;9.53;;;;;;;;;;4995582;28;20163;-87
2020/12/24 04:49:11;;;;;;;10.60;10.00;;;;;;;;;;4995500;28;20178;-87
2020/12/24 04:51:44;;;;;;;11.00;10.40;;;;;;;;;;4995114;28;20204;-87
2020/12/24 04:54:16;;;;;;;10.50;9.90;;;;;;;;;;4993937;28;20344;-87
2020/12/24 04:56:48;;;;;;;10.50;9.90;;;;;;;;;;4994004;28;20165;-87
2020/12/24 04:59:20;;;;;;;11.10;10.50;;;;;;;;;;4993826;28;20552;-87
2020/12/24 05:01:54;;;;;;;11.03;10.33;;;;;;;;;;4995044;28;20170;-87
2020/12/24 05:04:26;;;;;;;10.00;9.40;;;;;;;;;;4994260;28;20655;-87
2020/12/24 05:07:05;;;;;;;10.20;9.67;;;;;;;;;;4993381;28;20180;-87
2020/12/24 05:09:35;;;;;;;10.80;9.83;;;;;;;;;;4993637;28;20276;-87
2020/12/24 05:12:08;;;;;;;10.33;9.73;;;;;;;;;;4994846;28;20174;-87
2020/12/24 05:14:41;;;;;;;10.40;9.80;;;;;;;;;;4994772;28;20660;-87
2020/12/24 05:17:13;;;;;;;10.27;9.73;;;;;;;;;;4993529;28;20238;-87
2020/12/24 05:19:49;;;;;;;10.40;9.80;;;;;;;;;;4993483;28;20203;-87
2020/12/24 05:22:26;;;;;;;10.53;9.87;;;;;;;;;;4994700;28;20189;-87
2020/12/24 05:25:07;;;;;;;11.10;10.40;;;;;;;;;;4993287;28;20708;-87
2020/12/24 05:27:41;;;;;;;11.60;10.90;;;;;;;;;;4993734;28;20176;-87
2020/12/24 05:30:10;;;;;;;11.23;10.57;;;;;;;;;;4994626;28;20252;-88
2020/12/24 05:32:45;;;;;;;10.87;10.27;;;;;;;;;;4994510;28;20175;-87
2020/12/24 05:35:16;;;;;;;11.57;10.97;;;;;;;;;;4993840;28;20181;-87
2020/12/24 05:37:45;;;;;;;11.70;11.03;;;;;;;;;;4994594;28;20169;-87
2020/12/24 05:40:28;;;;;;;11.90;11.30;;;;;;;;;;4994301;28;20204;-87
2020/12/24 05:43:01;;;;;;;11.50;10.90;;;;;;;;;;4994247;28;20244;-87
2020/12/24 05:45:35;;;;;;;12.20;11.40;;;;;;;;;;4993070;28;20189;-87
2020/12/24 05:48:10;;;;;;;12.30;11.60;;;;;;;;;;4994245;28;20177;-87
2020/12/24 05:50:41;;;;;;;12.73;11.83;;;;;;;;;;4992891;28;20192;-87
2020/12/24 05:53:16;;;;;;;12.53;11.83;;;;;;;;;;4992886;28;20649;-87
2020/12/24 05:55:46;;;;;;;12.87;12.07;;;;;;;;;;4994210;28;20196;-87
2020/12/24 05:58:19;;;;;;;11.77;11.07;;;;;;;;;;4992843;28;20209;-87
2020/12/24 06:00:49;;;;;;;12.40;11.60;;;;;;;;;;4992674;28;20205;-87
2020/12/24 06:03:24;;;;;;;12.70;11.80;;;;;;;;;;4992661;28;20182;-87
2020/12/24 06:06:05;;;;;;;12.70;12.00;;;;;;;;;;4994215;28;20642;-87
2020/12/24 06:08:38;;;;;;;12.67;11.87;;;;;;;;;;4994126;28;20241;-87
2020/12/24 06:11:11;;;;;;;12.73;11.83;;;;;;;;;;4994052;28;20231;-87
2020/12/24 06:13:56;;;;;;;12.60;11.90;;;;;;;;;;4992592;28;20201;-87
2020/12/24 06:16:30;;;;;;;12.27;11.37;;;;;;;;;;4992459;28;20177;-87
2020/12/24 06:19:06;;;;;;;13.70;12.73;;;;;;;;;;4992279;28;20260;-87
2020/12/24 06:21:39;;;;;;;13.20;12.40;;;;;;;;;;4994023;28;20638;-87
2020/12/24 06:24:16;;;;;;;12.70;11.77;;;;;;;;;;4993609;28;20173;-87
2020/12/24 06:26:51;;;;;;;12.90;12.00;;;;;;;;;;4992533;28;20180;-87
2020/12/24 06:29:23;;;;;;;12.93;12.03;;;;;;;;;;4992163;28;20841;-87
2020/12/24 06:32:00;;;;;;;13.37;12.47;;;;;;;;;;4994038;28;20154;-87
2020/12/24 06:34:34;;;;;;;12.87;11.97;;;;;;;;;;4994015;28;20256;-87
2020/12/24 06:37:14;;;;;;;13.33;12.43;;;;;;;;;;4993926;28;20209;-87
2020/12/24 06:39:50;;;;;;;13.67;12.57;;;;;;;;;;4992464;28;20197;-87
2020/12/24 06:42:38;;;;;;;13.63;12.60;;;;;;;;;;4992648;28;20181;-87
2020/12/24 06:45:11;;;;;;;14.10;13.10;;;;;;;;;;4993631;28;20690;-87
2020/12/24 06:47:41;;;;;;;14.80;13.33;;;;;;;;;;4992416;28;20181;-87
2020/12/24 06:50:29;;;;;;;14.43;13.33;;;;;;;;;;4993646;28;20186;-87
2020/12/24 06:53:15;;;;;;;14.53;13.23;;;;;;;;;;4992248;28;20642;-87
2020/12/24 06:55:41;;;;;;;13.63;12.67;;;;;;;;;;4993363;28;20269;-87
2020/12/24 06:58:29;;;;;;;14.30;12.97;;;;;;;;;;4992294;28;20209;-87
2020/12/24 07:01:05;;;;;;;13.67;12.57;;;;;;;;;;4993373;28;20567;-87
2020/12/24 07:03:36;;;;;;;13.70;12.60;;;;;;;;;;4992101;28;20177;-87
2020/12/24 07:06:07;;;;;;;13.77;12.47;;;;;;;;;;4992237;28;20198;-87
2020/12/24 07:08:37;;;;;;;14.10;13.00;;;;;;;;;;4992212;28;20178;-87
2020/12/24 07:11:09;;;;;;;12.90;11.97;;;;;;;;;;4992006;28;20198;-87
2020/12/24 07:13:40;;;;;;;14.90;13.60;;;;;;;;;;4993240;28;20654;-87
2020/12/24 07:16:15;;;;;;;13.97;12.87;;;;;;;;;;4992117;28;20233;-87
2020/12/24 07:18:54;;;;;;;14.13;13.03;;;;;;;;;;4993317;28;20174;-87
2020/12/24 07:21:31;;;;;;;15.13;13.90;;;;;;;;;;4992208;28;20746;-87
2020/12/24 07:24:05;;;;;;;14.97;13.77;;;;;;;;;;4993596;28;20528;-87
2020/12/24 07:26:38;;;;;;;14.13;13.13;;;;;;;;;;4992046;28;20182;-87
2020/12/24 07:29:11;;;;;;;15.10;13.90;;;;;;;;;;4993619;28;20676;-87
2020/12/24 07:31:44;;;;;;;16.10;14.80;;;;;;;;;;4996082;28;20178;-87
2020/12/24 07:34:24;;;;;;;16.10;14.80;;;;;;;;;;4996684;28;20651;-87
2020/12/24 07:36:56;;;;;;;19.17;17.57;;;;;;;;;;4996895;28;20169;-87
2020/12/24 07:39:26;;;;;;;17.17;15.87;;;;;;;;;;4995253;28;20194;-87
2020/12/24 07:41:58;;;;;;;20.27;18.43;;;;;;;;;;4996066;28;20554;-87
2020/12/24 07:44:31;;;;;;;21.00;18.70;;;;;;;;;;4995144;28;20208;-87
2020/12/24 07:47:04;;;;;;;17.73;15.93;;;;;;;;;;4995632;28;20202;-87
2020/12/24 07:49:51;;;;;;;20.20;18.17;;;;;;;;;;4995486;28;20538;-87
2020/12/24 07:52:24;;;;;;;18.37;16.67;;;;;;;;;;4995166;28;20177;-88
2020/12/24 07:54:51;;;;;;;19.53;17.83;;;;;;;;;;4995254;28;20174;-87
2020/12/24 07:57:31;;;;;;;20.23;18.00;;;;;;;;;;4995180;28;20174;-88
2020/12/24 08:00:04;;;;;;;18.97;17.13;;;;;;;;;;4994925;28;20198;-87
2020/12/24 08:02:41;;;;;;;18.07;16.50;;;;;;;;;;4996469;28;20166;-87
2020/12/24 08:05:12;;;;;;;20.97;18.97;;;;;;;;;;4996048;28;20200;-87
2020/12/24 08:07:45;;;;;;;18.53;16.93;;;;;;;;;;4996085;28;20249;-87
2020/12/24 08:10:15;;;;;;;18.37;16.67;;;;;;;;;;4996009;28;20741;-88
2020/12/24 08:12:49;;;;;;;18.50;16.80;;;;;;;;;;4994708;28;20174;-87
2020/12/24 08:15:21;;;;;;;17.53;16.03;;;;;;;;;;4995190;28;20182;-87
2020/12/24 08:18:01;;;;;;;17.57;16.17;;;;;;;;;;4994751;28;20189;-87
2020/12/24 08:20:45;;;;;;;17.73;16.13;;;;;;;;;;4994608;28;20206;-87
2020/12/24 08:23:21;;;;;;;16.97;15.70;;;;;;;;;;4994548;28;20269;-88
2020/12/24 08:25:56;;;;;;;16.77;15.50;;;;;;;;;;4996015;28;20216;-88
2020/12/24 08:28:29;;;;;;;17.20;15.80;;;;;;;;;;4994409;28;20174;-88
2020/12/24 08:31:06;;;;;;;17.43;15.97;;;;;;;;;;4995834;28;20297;-88
2020/12/24 08:33:37;;;;;;;17.00;15.60;;;;;;;;;;4995934;28;20166;-88
2020/12/24 08:36:20;;;;;;;16.80;15.40;;;;;;;;;;4995500;28;20179;-88
2020/12/24 08:38:51;;;;;;;16.50;15.10;;;;;;;;;;4995077;28;20182;-88
2020/12/24 08:41:21;;;;;;;18.13;16.60;;;;;;;;;;4994878;28;20571;-88
2020/12/24 08:43:56;;;;;;;18.97;17.17;;;;;;;;;;4995555;28;20186;-88
2020/12/24 08:46:28;;;;;;;19.33;17.63;;;;;;;;;;4994149;28;20194;-87
2020/12/24 08:49:01;;;;;;;19.77;17.90;;;;;;;;;;4994672;28;20180;-87
2020/12/24 08:51:34;;;;;;;19.63;17.70;;;;;;;;;;4995476;28;20524;-88
2020/12/24 08:54:16;;;;;;;21.73;18.13;;;;;;;;;;4994606;28;20265;-88
2020/12/24 08:56:49;;;;;;;18.03;16.53;;;;;;;;;;4993960;28;20171;-88
2020/12/24 08:59:24;;;;;;;17.63;16.03;;;;;;;;;;4993869;28;20166;-88
2020/12/24 09:01:56;;;;;;;17.07;15.37;;;;;;;;;;4995135;28;20166;-88
2020/12/24 09:04:25;;;;;;;16.53;14.93;;;;;;;;;;4994995;28;20175;-88
2020/12/24 09:06:58;;;;;;;16.53;15.03;;;;;;;;;;4993734;28;20175;-88
2020/12/24 09:09:30;;;;;;;17.83;16.43;;;;;;;;;;4995064;28;20198;-86
2020/12/24 09:12:12;;;;;;;21.20;17.33;;;;;;;;;;4994877;28;20264;-86
2020/12/24 09:14:44;;;;;;;24.07;19.73;;;;;;;;;;4993541;28;20221;-87
2020/12/24 09:17:13;;;;;;;23.73;20.67;;;;;;;;;;4994863;28;20263;-87
2020/12/24 09:19:47;;;;;;;22.70;19.47;;;;;;;;;;4993527;28;20276;-87
2020/12/24 09:22:13;;;;;;;24.27;19.73;;;;;;;;;;4994776;28;20661;-87
2020/12/24 09:24:51;;;;;;;21.70;19.03;;;;;;;;;;4994646;28;20228;-87
2020/12/24 09:27:20;;;;;;;20.83;18.73;;;;;;;;;;4994883;28;20184;-87
2020/12/24 09:29:50;;;;;;;21.07;18.77;;;;;;;;;;4993162;28;20217;-87
2020/12/24 09:32:18;;;;;;;20.53;17.63;;;;;;;;;;4994456;28;20178;-87
2020/12/24 09:34:47;;;;;;;23.13;18.73;;;;;;;;;;4994388;28;20190;-87
2020/12/24 09:37:19;;;;;;;21.63;17.20;;;;;;;;;;4994406;28;20179;-87
2020/12/24 09:39:51;;;;;;;24.83;16.60;;;;;;;;;;4993121;28;20210;-87
2020/12/24 09:42:21;;;;;;;25.80;17.43;;;;;;;;;;4993209;28;20649;-87
2020/12/24 09:44:51;;;;;;;21.33;17.30;;;;;;;;;;4994187;28;20197;-87
2020/12/24 09:47:23;;;;;;;19.00;15.80;;;;;;;;;;4994269;28;20635;-87
2020/12/24 09:49:51;;;;;;;22.13;17.40;;;;;;;;;;4993034;28;20194;-87
2020/12/24 09:52:20;;;;;;;24.33;17.80;;;;;;;;;;4992118;28;20192;-87
2020/12/24 09:54:47;;;;;;;28.03;18.37;;;;;;;;;;4994077;28;20265;-87
2020/12/24 09:57:14;;;;;;;29.80;18.47;;;;;;;;;;4994015;28;20192;-87
2020/12/24 09:59:42;;;;;;;23.80;18.60;;;;;;;;;;4993630;28;20202;-87
2020/12/24 10:02:12;;;;;;;27.93;19.90;;;;;;;;;;4992851;28;20192;-87
2020/12/24 10:04:45;;;;;;;29.63;20.63;;;;;;;;;;4992770;28;20204;-86
2020/12/24 10:07:16;;;;;;;29.50;20.10;;;;;;;;;;4994393;28;20548;-87
2020/12/24 10:09:43;;;;;;;35.47;22.20;;;;;;;;;;4992649;28;20671;-87
2020/12/24 10:12:21;;;;;;;41.00;23.63;;;;;;;;;;4992731;28;20185;-87
2020/12/24 10:14:51;;;;;;;45.80;26.70;;;;;;;;;;4993924;28;20268;-87
2020/12/24 10:17:25;;;;;;;48.07;27.20;;;;;;;;;;4994190;28;20158;-87
2020/12/24 10:19:58;;;;;;;48.07;27.60;;;;;;;;;;4992484;28;20232;-87
2020/12/24 10:22:28;;;;;;;40.80;24.27;;;;;;;;;;4992605;28;20186;-87
2020/12/24 10:25:01;;;;;;;47.73;26.03;;;;;;;;;;4992476;28;20204;-87
2020/12/24 10:27:31;;;;;;;43.17;24.80;;;;;;;;;;4994102;28;20178;-87
2020/12/24 10:30:01;;;;;;;45.87;25.83;;;;;;;;;;4993657;28;20217;-87
2020/12/24 10:32:35;;;;;;;38.57;23.87;;;;;;;;;;4992518;28;20200;-86
2020/12/24 10:35:04;;;;;;;42.10;23.33;;;;;;;;;;4993281;28;20183;-85
2020/12/24 10:37:35;;;;;;;44.97;24.43;;;;;;;;;;4992690;28;20530;-86
2020/12/24 10:40:06;;;;;;;45.27;25.03;;;;;;;;;;4993892;28;20575;-86
2020/12/24 10:42:38;;;;;;;40.03;22.93;;;;;;;;;;4992578;28;20260;-86
2020/12/24 10:45:05;;;;;;;35.13;23.33;;;;;;;;;;4993632;28;20386;-85
2020/12/24 10:47:38;;;;;;;35.40;21.73;;;;;;;;;;4993602;28;20715;-86
2020/12/24 10:50:10;;;;;;;34.10;23.33;;;;;;;;;;4993407;28;20204;-86
2020/12/24 10:52:44;;;;;;;26.40;21.00;;;;;;;;;;4992231;28;20179;-87
2020/12/24 10:55:20;;;;;;;31.83;21.47;;;;;;;;;;4992261;28;20182;-87
2020/12/24 10:57:52;;;;;;;30.33;20.53;;;;;;;;;;4993535;28;20648;-87
2020/12/24 11:00:25;;;;;;;30.60;20.57;;;;;;;;;;4993787;28;20627;-87
2020/12/24 11:02:55;;;;;;;30.80;21.60;;;;;;;;;;4993582;28;20623;-87
2020/12/24 11:05:26;;;;;;;31.07;20.87;;;;;;;;;;4997174;28;20730;-87
2020/12/24 11:07:55;;;;;;;33.97;21.10;;;;;;;;;;4996070;28;20254;-87
2020/12/24 11:10:24;;;;;;;28.93;21.53;;;;;;;;;;4995985;28;20198;-87
2020/12/24 11:12:51;;;;;;;27.27;21.67;;;;;;;;;;4995962;28;20174;-86
2020/12/24 11:15:17;;;;;;;26.77;21.63;;;;;;;;;;4997414;28;20182;-87
2020/12/24 11:17:43;;;;;;;29.07;20.50;;;;;;;;;;4995919;28;20540;-87
2020/12/24 11:20:11;;;;;;;26.93;19.57;;;;;;;;;;4995722;28;20320;-86
2020/12/24 11:22:42;;;;;;;26.97;18.37;;;;;;;;;;4995714;28;20186;-87
2020/12/24 11:25:15;;;;;;;26.70;19.00;;;;;;;;;;4996916;28;20195;-87
2020/12/24 11:27:45;;;;;;;20.37;17.10;;;;;;;;;;4997146;28;20167;-87
2020/12/24 11:30:19;;;;;;;22.10;16.80;;;;;;;;;;4995259;28;20211;-86
2020/12/24 11:32:56;;;;;;;22.27;16.97;;;;;;;;;;4995734;28;20180;-86
2020/12/24 11:35:26;;;;;;;18.07;16.17;;;;;;;;;;4995652;28;20172;-86
2020/12/24 11:37:57;;;;;;;19.57;16.50;;;;;;;;;;4995948;28;20627;-86
2020/12/24 11:40:29;;;;;;;17.10;15.40;;;;;;;;;;4995267;28;20673;-85
2020/12/24 11:42:55;;;;;;;17.47;15.77;;;;;;;;;;4995407;28;20650;-85
2020/12/24 11:45:26;;;;;;;21.60;15.90;;;;;;;;;;4995260;28;20222;-85
2020/12/24 11:47:58;;;;;;;20.07;16.50;;;;;;;;;;4996978;28;20540;-86
2020/12/24 11:50:29;;;;;;;18.43;16.53;;;;;;;;;;4996608;28;20195;-85
2020/12/24 11:52:59;;;;;;;24.37;18.10;;;;;;;;;;4995228;28;20184;-85
2020/12/24 11:55:28;;;;;;;18.53;16.90;;;;;;;;;;4995192;28;20184;-86
2020/12/24 11:57:59;;;;;;;20.20;18.30;;;;;;;;;;4995096;28;20188;-86
2020/12/24 12:00:27;;;;;;;20.37;17.00;;;;;;;;;;4994947;28;20256;-87
2020/12/24 12:02:54;;;;;;;17.83;16.13;;;;;;;;;;4995047;28;20207;-87
2020/12/24 12:05:24;;;;;;;18.77;17.07;;;;;;;;;;4996080;28;20200;-87
2020/12/24 12:07:51;;;;;;;18.00;16.23;;;;;;;;;;4994918;28;20190;-87
2020/12/24 12:10:19;;;;;;;16.93;15.03;;;;;;;;;;4994931;28;20671;-87
2020/12/24 12:12:55;;;;;;;15.90;14.67;;;;;;;;;;4994886;28;20182;-87
2020/12/24 12:15:25;;;;;;;17.27;15.10;;;;;;;;;;4993820;28;20180;-85
2020/12/24 12:17:59;;;;;;;16.63;15.17;;;;;;;;;;4996047;28;20189;-86
2020/12/24 12:20:30;;;;;;;16.27;14.77;;;;;;;;;;4994570;28;20210;-87
2020/12/24 12:23:06;;;;;;;16.97;15.33;;;;;;;;;;4994620;28;20179;-87
2020/12/24 12:25:32;;;;;;;17.73;16.03;;;;;;;;;;4996016;28;20195;-87
2020/12/24 12:28:03;;;;;;;17.10;15.57;;;;;;;;;;4994570;28;20181;-86
2020/12/24 12:30:29;;;;;;;18.83;16.80;;;;;;;;;;4994339;28;20248;-87
2020/12/24 12:32:56;;;;;;;18.43;16.77;;;;;;;;;;4995702;28;20653;-87
2020/12/24 12:35:29;;;;;;;19.33;17.60;;;;;;;;;;4994518;28;20191;-86
2020/12/24 12:38:00;;;;;;;21.70;18.87;;;;;;;;;;4995561;28;20669;-86
2020/12/24 12:40:36;;;;;;;17.07;15.73;;;;;;;;;;4995393;28;20205;-86
2020/12/24 12:43:05;;;;;;;17.60;16.13;;;;;;;;;;4994715;28;20184;-85
2020/12/24 12:45:38;;;;;;;17.43;16.07;;;;;;;;;;4994144;28;20209;-86
2020/12/24 12:48:10;;;;;;;17.77;16.37;;;;;;;;;;4994053;28;20192;-86
2020/12/24 12:50:41;;;;;;;18.77;17.10;;;;;;;;;;4993868;28;20239;-85
2020/12/24 12:53:08;;;;;;;18.77;17.20;;;;;;;;;;4993978;28;20181;-86
2020/12/24 12:55:39;;;;;;;16.80;15.30;;;;;;;;;;4993977;28;20193;-87
2020/12/24 12:58:09;;;;;;;18.10;16.80;;;;;;;;;;4994030;28;20555;-87
2020/12/24 13:00:41;;;;;;;17.33;15.90;;;;;;;;;;4993883;28;20595;-88
2020/12/24 13:03:07;;;;;;;16.77;15.73;;;;;;;;;;4993834;28;20205;-87
2020/12/24 13:05:34;;;;;;;18.43;17.00;;;;;;;;;;4995303;28;20693;-87
2020/12/24 13:08:00;;;;;;;18.80;17.37;;;;;;;;;;4994072;28;20582;-87
2020/12/24 13:10:26;;;;;;;18.97;17.60;;;;;;;;;;4994905;28;20656;-86
2020/12/24 13:12:52;;;;;;;17.83;16.53;;;;;;;;;;4995068;28;20320;-87
2020/12/24 13:15:18;;;;;;;19.40;17.83;;;;;;;;;;4993601;28;20318;-87
2020/12/24 13:17:44;;;;;;;20.27;18.87;;;;;;;;;;4993624;28;20187;-87
2020/12/24 13:20:10;;;;;;;19.23;17.80;;;;;;;;;;4993471;28;20211;-88
2020/12/24 13:22:41;;;;;;;18.43;17.17;;;;;;;;;;4994701;28;20189;-87
2020/12/24 13:25:14;;;;;;;19.10;17.53;;;;;;;;;;4994707;28;20221;-86
2020/12/24 13:27:51;;;;;;;20.57;19.20;;;;;;;;;;4994564;28;20634;-87
2020/12/24 13:30:21;;;;;;;19.67;18.23;;;;;;;;;;4994612;28;20214;-87
2020/12/24 13:32:54;;;;;;;19.50;18.13;;;;;;;;;;4993278;28;20179;-87
2020/12/24 13:35:30;;;;;;;20.00;18.63;;;;;;;;;;4994557;28;20181;-87
2020/12/24 13:38:00;;;;;;;20.60;18.90;;;;;;;;;;4993268;28;20204;-87
2020/12/24 13:40:26;;;;;;;17.80;16.67;;;;;;;;;;4994754;28;20224;-86
2020/12/24 13:42:53;;;;;;;20.57;19.27;;;;;;;;;;4993152;28;20588;-87
2020/12/24 13:45:20;;;;;;;20.77;19.17;;;;;;;;;;4994429;28;20198;-88
2020/12/24 13:47:46;;;;;;;19.43;18.10;;;;;;;;;;4993051;28;20233;-87
2020/12/24 13:50:13;;;;;;;17.77;16.37;;;;;;;;;;4994377;28;20218;-87
2020/12/24 13:52:40;;;;;;;19.83;18.33;;;;;;;;;;4993284;28;20333;-87
2020/12/24 13:55:06;;;;;;;20.77;18.63;;;;;;;;;;4992945;28;20187;-88
2020/12/24 13:57:33;;;;;;;18.13;16.77;;;;;;;;;;4992961;28;20191;-86
2020/12/24 13:59:59;;;;;;;20.23;18.83;;;;;;;;;;4994072;28;20741;-86
2020/12/24 14:02:31;;;;;;;17.00;15.70;;;;;;;;;;4994090;28;20224;-85
2020/12/24 14:04:58;;;;;;;18.20;16.80;;;;;;;;;;4994272;28;20275;-87
2020/12/24 14:07:25;;;;;;;18.00;16.63;;;;;;;;;;4992772;28;20209;-85
2020/12/24 14:09:51;;;;;;;18.70;17.27;;;;;;;;;;4994258;28;20192;-85
2020/12/24 14:12:19;;;;;;;18.27;16.80;;;;;;;;;;4992735;28;20563;-86
2020/12/24 14:14:49;;;;;;;18.77;17.17;;;;;;;;;;4992913;28;20196;-86
2020/12/24 14:17:16;;;;;;;21.57;18.80;;;;;;;;;;4992616;28;20183;-87
2020/12/24 14:19:46;;;;;;;20.47;18.93;;;;;;;;;;4992622;28;20198;-86
2020/12/24 14:22:12;;;;;;;22.37;20.50;;;;;;;;;;4992497;28;20206;-86
2020/12/24 14:24:40;;;;;;;22.90;21.37;;;;;;;;;;4994098;28;20198;-86
2020/12/24 14:27:06;;;;;;;23.57;21.77;;;;;;;;;;4992757;28;20221;-87
2020/12/24 14:29:32;;;;;;;23.07;21.17;;;;;;;;;;4993671;28;20211;-87
2020/12/24 14:31:59;;;;;;;21.70;20.00;;;;;;;;;;4994206;28;20197;-87
2020/12/24 14:34:27;;;;;;;21.50;19.80;;;;;;;;;;4992571;28;20182;-88
2020/12/24 14:36:56;;;;;;;22.60;20.77;;;;;;;;;;4992477;28;20187;-87
2020/12/24 14:39:26;;;;;;;21.90;20.20;;;;;;;;;;4996345;28;20559;-86
2020/12/24 14:41:52;;;;;;;20.30;18.90;;;;;;;;;;4996628;28;20188;-87
2020/12/24 14:44:24;;;;;;;20.90;19.07;;;;;;;;;;4997634;28;20253;-87
2020/12/24 14:46:50;;;;;;;21.37;19.83;;;;;;;;;;4997999;28;20159;-86
2020/12/24 14:49:17;;;;;;;20.27;18.73;;;;;;;;;;4996801;28;20257;-84
2020/12/24 14:51:48;;;;;;;22.17;20.00;;;;;;;;;;4996531;28;20182;-84